createdAt,value
2018-08-19T00:00:24.942Z,76.82
2018-08-19T00:03:00.572Z,76.22
2018-08-19T00:05:31.029Z,77.13
2018-08-19T00:08:00.819Z,76.27
2018-08-19T00:11:00.604Z,76.21
2018-08-19T00:13:30.366Z,76.86
2018-08-19T00:16:00.129Z,77.92
2018-08-19T00:18:30.044Z,76.57
2018-08-19T00:20:59.993Z,78.26
2018-08-19T00:23:37.567Z,77.80
2018-08-19T00:26:07.496Z,77.51
2018-08-19T00:28:37.172Z,78.38
2018-08-19T00:31:08.628Z,78.15
2018-08-19T00:33:38.409Z,78.41
2018-08-19T00:36:25.117Z,77.23
2018-08-19T00:38:55.889Z,76.63
2018-08-19T00:41:26.121Z,77.71
2018-08-19T00:43:55.878Z,77.79
2018-08-19T00:46:31.840Z,78.90
2018-08-19T00:49:02.134Z,78.46
2018-08-19T00:51:31.780Z,77.42
2018-08-19T00:54:01.537Z,78.23
2018-08-19T00:56:31.300Z,78.38
2018-08-19T00:59:00.953Z,78.58
2018-08-19T01:01:35.995Z,77.92
2018-08-19T01:04:09.801Z,78.49
2018-08-19T01:06:44.665Z,78.30
2018-08-19T01:09:14.682Z,78.22
2018-08-19T01:11:44.867Z,78.45
2018-08-19T01:14:15.944Z,78.45
2018-08-19T01:16:45.733Z,79.00
2018-08-19T01:19:16.892Z,78.69
2018-08-19T01:21:52.173Z,78.68
2018-08-19T01:24:22.868Z,79.29
2018-08-19T01:26:52.518Z,78.42
2018-08-19T01:29:35.108Z,79.49
2018-08-19T01:32:20.406Z,80.54
2018-08-19T01:34:50.059Z,80.62
2018-08-19T01:37:19.930Z,79.56
2018-08-19T01:39:49.519Z,80.25
2018-08-19T01:42:22.062Z,79.00
2018-08-19T01:44:51.620Z,80.01
2018-08-19T01:47:21.200Z,79.74
2018-08-19T01:49:50.981Z,80.06
2018-08-19T01:52:20.761Z,80.20
2018-08-19T01:54:50.478Z,79.67
2018-08-19T01:57:20.202Z,79.71
2018-08-19T01:59:49.768Z,79.21
2018-08-19T02:02:19.371Z,79.50
2018-08-19T02:04:54.398Z,80.59
2018-08-19T02:07:24.537Z,79.88
2018-08-19T02:10:02.796Z,80.74
2018-08-19T02:12:39.619Z,81.50
2018-08-19T02:15:10.537Z,82.01
2018-08-19T02:17:46.022Z,82.04
2018-08-19T02:20:16.066Z,82.33
2018-08-19T02:22:49.896Z,82.67
2018-08-19T02:25:19.628Z,82.18
2018-08-19T02:27:50.548Z,82.78
2018-08-19T02:30:20.396Z,82.54
2018-08-19T02:32:51.119Z,81.76
2018-08-19T02:35:21.040Z,82.70
2018-08-19T02:37:50.868Z,83.42
2018-08-19T02:40:25.821Z,83.51
2018-08-19T02:42:55.645Z,83.16
2018-08-19T02:45:25.712Z,83.26
2018-08-19T02:47:55.704Z,83.31
2018-08-19T02:50:25.295Z,83.50
2018-08-19T02:52:54.959Z,83.46
2018-08-19T02:55:26.414Z,83.88
2018-08-19T02:58:01.164Z,83.68
2018-08-19T03:00:30.760Z,83.92
2018-08-19T03:03:00.382Z,83.91
2018-08-19T03:05:29.960Z,83.39
2018-08-19T03:07:59.526Z,83.93
2018-08-19T03:10:29.381Z,83.58
2018-08-19T03:12:59.110Z,84.12
2018-08-19T03:15:28.661Z,84.17
2018-08-19T03:17:58.304Z,84.42
2018-08-19T03:20:28.164Z,84.74
2018-08-19T03:22:57.893Z,84.24
2018-08-19T03:25:28.089Z,84.01
2018-08-19T03:27:57.994Z,84.04
2018-08-19T03:30:27.888Z,83.43
2018-08-19T03:33:00.546Z,83.32
2018-08-19T03:35:30.287Z,83.41
2018-08-19T03:38:04.673Z,83.91
2018-08-19T03:40:34.162Z,83.16
2018-08-19T03:43:04.107Z,84.00
2018-08-19T03:45:33.808Z,82.45
2018-08-19T03:48:03.456Z,83.68
2018-08-19T03:50:36.667Z,83.69
2018-08-19T03:53:06.890Z,83.96
2018-08-19T03:55:39.303Z,84.04
2018-08-19T03:58:10.515Z,84.06
2018-08-19T04:00:43.841Z,83.69
2018-08-19T04:03:22.064Z,84.55
2018-08-19T04:05:57.304Z,84.83
2018-08-19T04:08:33.757Z,83.82
2018-08-19T04:11:07.441Z,83.69
2018-08-19T04:13:39.629Z,82.50
2018-08-19T04:16:11.168Z,82.58
2018-08-19T04:18:43.193Z,82.62
2018-08-19T04:21:17.668Z,83.35
2018-08-19T04:23:49.688Z,82.58
2018-08-19T04:26:19.707Z,82.65
2018-08-19T04:28:49.296Z,83.21
2018-08-19T04:31:24.265Z,82.08
2018-08-19T04:33:55.019Z,81.90
2018-08-19T04:36:25.325Z,82.83
2018-08-19T04:38:55.412Z,82.25
2018-08-19T04:41:25.092Z,82.63
2018-08-19T04:43:56.044Z,81.75
2018-08-19T04:46:25.757Z,80.58
2018-08-19T04:48:55.615Z,79.77
2018-08-19T04:51:26.459Z,79.85
2018-08-19T04:53:56.231Z,78.26
2018-08-19T04:56:25.943Z,78.37
2018-08-19T04:58:55.826Z,77.28
2018-08-19T05:01:25.444Z,75.61
2018-08-19T05:03:55.499Z,72.40
2018-08-19T05:06:25.839Z,73.46
2018-08-19T05:08:55.624Z,68.65
2018-08-19T05:11:25.299Z,66.88
2018-08-19T05:13:55.211Z,63.36
2018-08-19T05:16:24.950Z,62.77
2018-08-19T05:18:59.613Z,68.97
2018-08-19T05:21:29.394Z,67.38
2018-08-19T05:23:59.190Z,67.26
2018-08-19T05:26:28.923Z,66.37
2018-08-19T05:29:10.768Z,63.30
2018-08-19T05:31:45.271Z,58.00
2018-08-19T05:34:45.784Z,62.49
2018-08-19T05:37:15.489Z,61.07
2018-08-19T05:39:51.231Z,58.57
2018-08-19T05:42:20.892Z,55.78
2018-08-19T05:44:50.549Z,53.01
2018-08-19T05:47:20.331Z,54.33
2018-08-19T05:49:51.334Z,54.98
2018-08-19T05:52:22.352Z,50.44
2018-08-19T05:54:58.226Z,48.19
2018-08-19T05:57:29.780Z,45.99
2018-08-19T06:00:01.007Z,45.61
2018-08-19T06:02:35.945Z,49.56
2018-08-19T06:05:05.882Z,44.65
2018-08-19T06:07:35.838Z,49.81
2018-08-19T06:10:06.251Z,45.24
2018-08-19T06:12:36.048Z,47.51
2018-08-19T06:15:06.547Z,47.54
2018-08-19T06:17:36.296Z,47.41
2018-08-19T06:20:06.498Z,47.39
2018-08-19T06:22:40.821Z,51.15
2018-08-19T06:25:11.857Z,48.52
2018-08-19T06:27:46.515Z,46.92
2018-08-19T06:30:17.045Z,51.60
2018-08-19T06:32:46.974Z,43.06
2018-08-19T06:35:16.768Z,41.82
2018-08-19T06:37:46.488Z,41.83
2018-08-19T06:40:20.904Z,49.72
2018-08-19T06:42:50.563Z,38.77
2018-08-19T06:45:20.392Z,44.69
2018-08-19T06:47:50.116Z,46.81
2018-08-19T06:50:33.627Z,47.93
2018-08-19T06:53:03.386Z,42.96
2018-08-19T06:55:33.100Z,46.07
2018-08-19T06:58:02.893Z,44.47
2018-08-19T07:00:33.265Z,47.15
2018-08-19T07:03:05.780Z,42.35
2018-08-19T07:05:35.656Z,44.72
2018-08-19T07:08:05.374Z,49.21
2018-08-19T07:10:40.197Z,47.87
2018-08-19T07:13:13.007Z,49.61
2018-08-19T07:15:43.852Z,46.76
2018-08-19T07:18:15.280Z,41.14
2018-08-19T07:20:45.563Z,47.10
2018-08-19T07:23:15.273Z,46.20
2018-08-19T07:25:45.828Z,48.33
2018-08-19T07:28:17.366Z,46.69
2018-08-19T07:30:47.394Z,43.70
2018-08-19T07:33:17.003Z,46.31
2018-08-19T07:35:46.647Z,44.62
2018-08-19T07:38:16.989Z,49.12
2018-08-19T07:40:46.714Z,46.55
2018-08-19T07:43:16.357Z,50.22
2018-08-19T07:45:45.984Z,49.64
2018-08-19T07:48:15.779Z,54.88
2018-08-19T07:50:45.473Z,54.90
2018-08-19T07:53:21.815Z,59.36
2018-08-19T07:55:51.432Z,59.21
2018-08-19T07:58:42.704Z,58.79
2018-08-19T08:01:12.465Z,58.97
2018-08-19T08:03:42.116Z,57.90
2018-08-19T08:06:11.831Z,56.78
2018-08-19T08:08:41.580Z,58.76
2018-08-19T08:11:11.491Z,58.00
2018-08-19T08:13:41.445Z,58.80
2018-08-19T08:16:11.252Z,56.57
2018-08-19T08:18:40.885Z,58.72
2018-08-19T08:21:13.668Z,58.57
2018-08-19T08:23:43.647Z,59.27
2018-08-19T08:26:13.400Z,57.33
2018-08-19T08:28:52.647Z,57.27
2018-08-19T08:31:22.348Z,56.33
2018-08-19T08:33:52.110Z,59.14
2018-08-19T08:36:21.756Z,58.70
2018-08-19T08:38:51.491Z,56.44
2018-08-19T08:41:21.157Z,58.47
2018-08-19T08:43:50.825Z,57.18
2018-08-19T08:46:20.479Z,56.44
2018-08-19T08:48:50.180Z,57.41
2018-08-19T08:51:19.990Z,57.60
2018-08-19T08:53:49.660Z,55.80
2018-08-19T08:56:19.398Z,56.48
2018-08-19T08:58:48.996Z,54.79
2018-08-19T09:01:18.658Z,56.22
2018-08-19T09:03:48.258Z,55.47
2018-08-19T09:06:23.186Z,55.02
2018-08-19T09:08:52.822Z,54.65
2018-08-19T09:11:22.401Z,54.99
2018-08-19T09:13:52.212Z,53.83
2018-08-19T09:16:22.003Z,53.58
2018-08-19T09:18:51.786Z,53.53
2018-08-19T09:21:21.453Z,53.28
2018-08-19T09:23:51.296Z,54.28
2018-08-19T09:26:21.005Z,52.40
2018-08-19T09:28:50.647Z,52.94
2018-08-19T09:31:20.327Z,53.91
2018-08-19T09:33:49.940Z,53.46
2018-08-19T09:36:19.662Z,54.75
2018-08-19T09:38:49.331Z,51.90
2018-08-19T09:41:18.942Z,52.94
2018-08-19T09:43:48.581Z,51.98
2018-08-19T09:46:18.256Z,53.00
2018-08-19T09:48:47.919Z,50.69
2018-08-19T09:51:17.493Z,51.04
2018-08-19T09:53:47.303Z,50.61
2018-08-19T09:56:20.537Z,51.59
2018-08-19T09:58:55.423Z,50.46
2018-08-19T10:01:45.165Z,52.42
2018-08-19T10:04:22.855Z,50.55
2018-08-19T10:07:02.622Z,51.80
2018-08-19T10:09:32.172Z,51.54
2018-08-19T10:12:02.091Z,49.78
2018-08-19T10:14:31.777Z,49.08
2018-08-19T10:17:01.643Z,47.04
2018-08-19T10:19:38.090Z,48.26
2018-08-19T10:22:07.757Z,47.93
2018-08-19T10:24:37.503Z,49.28
2018-08-19T10:27:09.528Z,49.33
2018-08-19T10:29:39.540Z,44.82
2018-08-19T10:32:09.562Z,45.90
2018-08-19T10:34:39.536Z,45.84
2018-08-19T10:37:09.458Z,45.60
2018-08-19T10:39:39.179Z,44.83
2018-08-19T10:42:21.967Z,45.87
2018-08-19T10:44:52.934Z,43.29
2018-08-19T10:47:22.733Z,43.24
2018-08-19T10:50:10.303Z,44.03
2018-08-19T10:52:42.033Z,48.72
2018-08-19T10:55:13.312Z,45.96
2018-08-19T10:57:43.328Z,46.18
2018-08-19T11:00:15.978Z,47.43
2018-08-19T11:02:45.568Z,44.04
2018-08-19T11:05:15.626Z,44.76
2018-08-19T11:07:45.299Z,44.70
2018-08-19T11:10:26.817Z,45.83
2018-08-19T11:12:58.269Z,45.82
2018-08-19T11:15:45.486Z,45.95
2018-08-19T11:18:36.285Z,47.83
2018-08-19T11:21:09.851Z,47.52
2018-08-19T11:23:41.744Z,46.37
2018-08-19T11:26:12.443Z,47.58
2018-08-19T11:28:46.028Z,47.16
2018-08-19T11:31:28.180Z,45.76
2018-08-19T11:34:01.853Z,45.82
2018-08-19T11:36:37.857Z,46.34
2018-08-19T11:39:09.616Z,46.35
2018-08-19T11:41:39.360Z,47.08
2018-08-19T11:44:15.581Z,45.70
2018-08-19T11:46:45.290Z,46.01
2018-08-19T11:49:17.904Z,47.13
2018-08-19T11:51:49.731Z,45.80
2018-08-19T11:54:20.335Z,45.82
2018-08-19T11:56:58.879Z,45.67
2018-08-19T11:59:33.990Z,45.11
2018-08-19T12:02:04.120Z,44.83
2018-08-19T12:04:33.929Z,44.43
2018-08-19T12:07:03.757Z,45.22
2018-08-19T12:09:33.556Z,44.86
2018-08-19T12:12:03.663Z,45.60
2018-08-19T12:14:36.231Z,44.67
2018-08-19T12:17:13.286Z,44.47
2018-08-19T12:19:44.482Z,44.45
2018-08-19T12:22:14.203Z,43.87
2018-08-19T12:24:46.725Z,44.79
2018-08-19T12:27:19.830Z,44.81
2018-08-19T12:29:49.599Z,43.58
2018-08-19T12:32:27.882Z,43.43
2018-08-19T12:35:01.594Z,44.10
2018-08-19T12:37:32.576Z,44.40
2018-08-19T12:40:02.318Z,45.10
2018-08-19T12:42:37.545Z,44.56
2018-08-19T12:45:08.409Z,42.35
2018-08-19T12:47:38.256Z,42.23
2018-08-19T12:50:13.577Z,42.29
2018-08-19T12:52:43.405Z,42.36
2018-08-19T12:55:16.507Z,42.10
2018-08-19T12:57:47.952Z,42.86
2018-08-19T13:00:23.909Z,43.69
2018-08-19T13:02:53.836Z,43.10
2018-08-19T13:05:23.880Z,43.88
2018-08-19T13:07:53.674Z,43.07
2018-08-19T13:10:23.832Z,43.42
2018-08-19T13:12:59.516Z,42.29
2018-08-19T13:15:30.917Z,43.18
2018-08-19T13:18:00.850Z,44.15
2018-08-19T13:20:30.587Z,41.59
2018-08-19T13:23:02.504Z,42.04
2018-08-19T13:25:32.584Z,41.25
2018-08-19T13:28:02.527Z,41.13
2018-08-19T13:30:32.472Z,40.94
2018-08-19T13:33:02.251Z,42.07
2018-08-19T13:35:32.129Z,41.60
2018-08-19T13:38:01.777Z,41.19
2018-08-19T13:40:38.245Z,40.50
2018-08-19T13:43:07.922Z,42.18
2018-08-19T13:45:37.696Z,42.05
2018-08-19T13:48:07.338Z,41.25
2018-08-19T13:50:37.120Z,41.70
2018-08-19T13:53:06.890Z,43.24
2018-08-19T13:55:37.220Z,41.52
2018-08-19T13:58:06.874Z,41.20
2018-08-19T14:00:36.915Z,42.24
2018-08-19T14:03:06.754Z,41.24
2018-08-19T14:05:36.878Z,40.67
2018-08-19T14:08:06.799Z,41.91
2018-08-19T14:10:36.840Z,40.31
2018-08-19T14:13:06.666Z,41.70
2018-08-19T14:15:36.580Z,40.78
2018-08-19T14:18:06.991Z,39.75
2018-08-19T14:20:37.129Z,40.12
2018-08-19T14:23:06.773Z,40.44
2018-08-19T14:25:36.811Z,40.87
2018-08-19T14:28:06.741Z,41.07
2018-08-19T14:30:37.365Z,40.34
2018-08-19T14:33:07.622Z,41.55
2018-08-19T14:35:38.804Z,40.05
2018-08-19T14:38:08.835Z,41.08
2018-08-19T14:40:39.247Z,40.86
2018-08-19T14:43:08.908Z,39.75
2018-08-19T14:45:39.482Z,40.80
2018-08-19T14:48:09.644Z,40.57
2018-08-19T14:50:42.308Z,41.01
2018-08-19T14:53:12.121Z,41.11
2018-08-19T14:55:42.288Z,40.42
2018-08-19T14:58:12.160Z,40.72
2018-08-19T15:00:42.966Z,39.50
2018-08-19T15:03:12.685Z,38.95
2018-08-19T15:05:48.356Z,39.61
2018-08-19T15:08:19.574Z,39.04
2018-08-19T15:10:53.573Z,39.18
2018-08-19T15:13:23.536Z,38.29
2018-08-19T15:15:53.433Z,38.57
2018-08-19T15:18:23.085Z,40.08
2018-08-19T15:20:52.794Z,39.33
2018-08-19T15:23:22.720Z,39.02
2018-08-19T15:25:52.423Z,37.82
2018-08-19T15:28:22.099Z,37.92
2018-08-19T15:30:51.816Z,37.95
2018-08-19T15:33:22.784Z,38.90
2018-08-19T15:35:52.423Z,38.87
2018-08-19T15:38:22.117Z,38.85
2018-08-19T15:40:51.816Z,37.78
2018-08-19T15:43:21.385Z,37.67
2018-08-19T15:45:50.997Z,37.41
2018-08-19T15:48:20.896Z,38.07
2018-08-19T15:50:57.436Z,38.75
2018-08-19T15:53:27.264Z,38.10
2018-08-19T15:55:57.044Z,38.72
2018-08-19T15:58:28.749Z,37.88
2018-08-19T16:00:58.386Z,37.17
2018-08-19T16:03:28.019Z,38.53
2018-08-19T16:05:58.375Z,37.65
2018-08-19T16:08:28.037Z,38.50
2018-08-19T16:10:57.599Z,38.79
2018-08-19T16:13:27.386Z,39.14
2018-08-19T16:15:57.016Z,38.75
2018-08-19T16:18:26.653Z,39.21
2018-08-19T16:21:01.518Z,38.53
2018-08-19T16:23:31.329Z,38.66
2018-08-19T16:26:01.215Z,39.01
2018-08-19T16:28:30.866Z,38.45
2018-08-19T16:31:00.509Z,38.64
2018-08-19T16:33:30.495Z,39.21
2018-08-19T16:36:00.143Z,37.76
2018-08-19T16:38:29.731Z,38.75
2018-08-19T16:40:59.448Z,38.94
2018-08-19T16:43:29.067Z,38.62
2018-08-19T16:45:58.760Z,39.15
2018-08-19T16:48:28.565Z,39.31
2018-08-19T16:50:58.291Z,39.64
2018-08-19T16:53:28.030Z,38.74
2018-08-19T16:55:57.855Z,38.83
2018-08-19T16:58:27.616Z,40.21
2018-08-19T17:00:57.313Z,39.58
2018-08-19T17:03:37.715Z,39.32
2018-08-19T17:06:14.522Z,39.55
2018-08-19T17:08:44.508Z,40.02
2018-08-19T17:11:15.511Z,40.30
2018-08-19T17:13:45.426Z,39.90
2018-08-19T17:16:15.062Z,40.27
2018-08-19T17:18:44.691Z,40.33
2018-08-19T17:21:14.567Z,39.69
2018-08-19T17:23:48.360Z,40.04
2018-08-19T17:26:21.160Z,40.68
2018-08-19T17:28:51.515Z,40.89
2018-08-19T17:31:21.559Z,40.57
2018-08-19T17:33:51.546Z,41.02
2018-08-19T17:46:16.511Z,40.99
2018-08-19T17:48:46.331Z,42.03
2018-08-19T17:51:31.965Z,42.39
2018-08-19T17:54:01.896Z,43.27
2018-08-19T17:56:31.595Z,43.55
2018-08-19T17:59:01.812Z,43.67
2018-08-19T18:01:31.582Z,44.26
2018-08-19T18:04:01.359Z,44.01
2018-08-19T18:06:30.998Z,44.06
2018-08-19T18:09:00.812Z,44.67
2018-08-19T18:11:30.496Z,45.42
2018-08-19T18:14:00.420Z,45.54
2018-08-19T18:16:30.271Z,46.07
2018-08-19T18:19:01.470Z,46.12
2018-08-19T18:21:35.767Z,46.31
2018-08-19T18:24:07.397Z,46.28
2018-08-19T18:26:37.240Z,46.94
2018-08-19T18:29:06.921Z,46.65
2018-08-19T18:31:37.142Z,47.27
2018-08-19T18:34:10.011Z,48.19
2018-08-19T18:36:40.115Z,48.19
2018-08-19T18:39:12.132Z,48.22
2018-08-19T18:41:46.597Z,48.45
2018-08-19T18:44:16.510Z,49.52
2018-08-19T18:46:46.396Z,49.14
2018-08-19T18:49:16.263Z,49.27
2018-08-19T18:51:48.176Z,50.05
2018-08-19T18:54:25.075Z,50.68
2018-08-19T18:56:54.741Z,50.31
2018-08-19T18:59:24.369Z,50.86
2018-08-19T19:01:59.111Z,50.99
2018-08-19T19:04:29.111Z,51.96
2018-08-19T19:06:59.241Z,51.97
2018-08-19T19:09:42.145Z,52.52
2018-08-19T19:12:12.379Z,52.57
2018-08-19T19:14:42.321Z,52.60
2018-08-19T19:17:12.493Z,53.19
2018-08-19T19:19:47.967Z,52.43
2018-08-19T19:22:17.866Z,53.67
2018-08-19T19:24:48.160Z,53.80
2018-08-19T19:27:18.194Z,54.95
2018-08-19T19:29:52.313Z,54.37
2018-08-19T19:32:25.664Z,54.63
2018-08-19T19:34:55.372Z,54.66
2018-08-19T19:37:25.323Z,55.03
2018-08-19T19:40:00.293Z,55.73
2018-08-19T19:42:30.068Z,56.00
2018-08-19T19:45:00.446Z,56.71
2018-08-19T19:47:30.202Z,57.41
2018-08-19T19:50:00.480Z,57.48
2018-08-19T19:52:30.468Z,56.96
2018-08-19T19:55:00.356Z,57.88
2018-08-19T19:57:30.150Z,57.91
2018-08-19T19:59:59.928Z,58.65
2018-08-19T20:02:31.594Z,59.02
2018-08-19T20:05:09.073Z,57.82
2018-08-19T20:07:38.847Z,58.81
2018-08-19T20:10:13.205Z,58.60
2018-08-19T20:12:43.041Z,59.19
2018-08-19T20:15:12.740Z,59.57
2018-08-19T20:17:42.423Z,59.85
2018-08-19T20:20:12.100Z,60.07
2018-08-19T20:22:42.025Z,59.87
2018-08-19T20:25:11.693Z,60.22
2018-08-19T20:27:41.897Z,60.30
2018-08-19T20:30:11.964Z,59.79
2018-08-19T20:32:41.774Z,60.20
2018-08-19T20:35:11.656Z,61.17
2018-08-19T20:37:41.484Z,60.85
2018-08-19T20:40:11.406Z,60.49
2018-08-19T20:42:41.080Z,60.73
2018-08-19T20:45:10.847Z,61.34
2018-08-19T20:47:41.375Z,62.45
2018-08-19T20:50:11.076Z,61.11
2018-08-19T20:52:45.723Z,61.68
2018-08-19T20:55:16.036Z,61.87
2018-08-19T20:57:46.662Z,63.65
2018-08-19T21:00:16.600Z,63.28
2018-08-19T21:02:46.362Z,64.29
2018-08-19T21:05:16.101Z,63.49
2018-08-19T21:07:45.936Z,64.92
2018-08-19T21:10:15.733Z,64.42
2018-08-19T21:12:45.511Z,64.81
2018-08-19T21:15:22.480Z,64.49
2018-08-19T21:17:52.398Z,65.20
2018-08-19T21:20:22.273Z,65.94
2018-08-19T21:22:53.348Z,66.06
2018-08-19T21:25:23.047Z,65.91
2018-08-19T21:27:53.003Z,66.02
2018-08-19T21:30:23.424Z,66.43
2018-08-19T21:32:53.906Z,67.08
2018-08-19T21:35:24.108Z,66.57
2018-08-19T21:37:53.725Z,67.08
2018-08-19T21:42:58.668Z,67.78
2018-08-19T21:45:28.285Z,68.18
2018-08-19T21:47:57.921Z,67.36
2018-08-19T21:50:27.550Z,68.29
2018-08-19T21:53:02.232Z,68.21
2018-08-19T21:55:34.080Z,67.90
2018-08-19T21:58:04.198Z,68.01
2018-08-19T22:00:42.013Z,68.35
2018-08-19T22:03:22.007Z,68.32
2018-08-19T22:05:53.072Z,69.31
2018-08-19T22:08:24.273Z,69.37
2018-08-19T22:10:54.131Z,68.58
2018-08-19T22:13:23.782Z,68.50
2018-08-19T22:15:53.472Z,69.59
2018-08-19T22:18:24.015Z,68.73
2018-08-19T22:21:09.332Z,70.13
2018-08-19T22:23:48.630Z,69.89
2018-08-19T22:26:19.332Z,70.21
2018-08-19T22:29:08.461Z,70.01
2018-08-19T22:31:38.042Z,70.19
2018-08-19T22:34:07.760Z,70.60
2018-08-19T22:36:37.448Z,69.12
2018-08-19T22:41:38.718Z,68.43
2018-08-19T22:44:08.371Z,67.02
2018-08-19T22:46:38.000Z,66.77
2018-08-19T22:49:07.579Z,66.19
2018-08-19T22:51:37.209Z,66.30
2018-08-19T22:54:06.934Z,66.54
2018-08-19T22:56:36.499Z,66.55
2018-08-19T22:59:06.215Z,66.33
2018-08-19T23:01:40.958Z,67.14
2018-08-19T23:04:10.588Z,67.09
2018-08-19T23:06:40.223Z,67.50
2018-08-19T23:09:09.957Z,66.56
2018-08-19T23:11:44.719Z,67.15
2018-08-19T23:14:31.090Z,67.51
2018-08-19T23:17:00.784Z,66.85
2018-08-19T23:19:30.388Z,67.44
2018-08-19T23:22:00.074Z,68.13
2018-08-19T23:24:29.712Z,67.08
2018-08-19T23:26:59.476Z,67.85
2018-08-19T23:29:29.120Z,68.87
2018-08-19T23:31:58.742Z,68.11
2018-08-19T23:34:28.436Z,68.65
2018-08-19T23:36:58.282Z,68.85
2018-08-19T23:39:27.874Z,69.28
2018-08-19T23:41:57.524Z,69.46
2018-08-19T23:44:27.194Z,69.60
2018-08-19T23:46:56.824Z,69.32
2018-08-19T23:49:26.442Z,69.38
2018-08-19T23:51:56.087Z,70.01
2018-08-19T23:54:25.722Z,70.18
2018-08-19T23:56:55.369Z,70.06
2018-08-19T23:59:31.927Z,71.00
